Home > Products > Valid Products > TAF

000
FTUS43 KMKX 030520
TAFMKE
TAF
KMKE 030520Z 0306/0412 00000KT P6SM BKN250
     FM030900 VRB03KT 6SM BR SCT250
     FM031200 06004KT P6SM FEW250
     FM031800 11009KT P6SM FEW250
     FM032200 14008KT P6SM FEW250
     FM040300 20004KT P6SM FEW200=



000
FTUS43 KMKX 030520
TAFMSN
TAF
KMSN 030520Z 0306/0406 11004KT P6SM SCT250
     FM030800 00000KT P6SM FEW250
     FM031500 20004KT P6SM FEW040=



000
FTUS43 KMKX 030520
TAFMSN
TAF
KMSN 030520Z 0306/0406 11004KT P6SM SCT250
     FM030800 00000KT P6SM FEW250
     FM031500 20004KT P6SM FEW040=



000
FTUS43 KMKX 030520
TAFMKE
TAF
KMKE 030520Z 0306/0412 00000KT P6SM BKN250
     FM030900 VRB03KT 6SM BR SCT250
     FM031200 06004KT P6SM FEW250
     FM031800 11009KT P6SM FEW250
     FM032200 14008KT P6SM FEW250
     FM040300 20004KT P6SM FEW200=



000
FTUS43 KMKX 030520
TAFMKE
TAF
KMKE 030520Z 0306/0412 00000KT P6SM BKN250
     FM030900 VRB03KT 6SM BR SCT250
     FM031200 06004KT P6SM FEW250
     FM031800 11009KT P6SM FEW250
     FM032200 14008KT P6SM FEW250
     FM040300 20004KT P6SM FEW200=



000
FTUS43 KMKX 030520
TAFMKE
TAF
KMKE 030520Z 0306/0412 00000KT P6SM BKN250
     FM030900 VRB03KT 6SM BR SCT250
     FM031200 06004KT P6SM FEW250
     FM031800 11009KT P6SM FEW250
     FM032200 14008KT P6SM FEW250
     FM040300 20004KT P6SM FEW200=



000
FTUS43 KMKX 030317 AAA
TAFMKE
TAF AMD
KMKE 030317Z 0303/0406 02003KT P6SM BKN250
     FM031400 09004KT P6SM FEW035
     FM031800 11009KT P6SM FEW250
     FM032200 14008KT P6SM FEW250
     FM040300 20004KT P6SM FEW250=



000
FTUS43 KMKX 030317 AAA
TAFMKE
TAF AMD
KMKE 030317Z 0303/0406 02003KT P6SM BKN250
     FM031400 09004KT P6SM FEW035
     FM031800 11009KT P6SM FEW250
     FM032200 14008KT P6SM FEW250
     FM040300 20004KT P6SM FEW250=



000
FTUS43 KMKX 022320
TAFMSN
TAF
KMSN 022320Z 0300/0324 08006KT P6SM FEW250
     FM030600 11004KT P6SM FEW250
     FM030800 00000KT P6SM FEW250=



000
FTUS43 KMKX 022320
TAFMKE
TAF
KMKE 022320Z 0300/0406 03005KT P6SM SKC
     FM031400 09004KT P6SM FEW035
     FM031800 11009KT P6SM FEW250
     FM032200 14008KT P6SM FEW250
     FM040300 20004KT P6SM FEW250=



000
FTUS43 KMKX 022320
TAFMSN
TAF
KMSN 022320Z 0300/0324 08006KT P6SM FEW250
     FM030600 11004KT P6SM FEW250
     FM030800 00000KT P6SM FEW250=



000
FTUS43 KMKX 022320
TAFMKE
TAF
KMKE 022320Z 0300/0406 03005KT P6SM SKC
     FM031400 09004KT P6SM FEW035
     FM031800 11009KT P6SM FEW250
     FM032200 14008KT P6SM FEW250
     FM040300 20004KT P6SM FEW250=



000
FTUS43 KMKX 022039 AAA
TAFMKE
TAF AMD
KMKE 022039Z 0221/0324 04010KT P6SM SKC
     FM030100 04006KT P6SM SKC
     FM030400 VRB03KT P6SM SKC
     FM031400 13005KT P6SM SKC=



000
FTUS43 KMKX 022039 AAA
TAFMSN
TAF AMD
KMSN 022039Z 0221/0318 08008KT P6SM FEW250
     FM030100 VRB03KT P6SM SKC
     FM030900 00000KT 5SM BR SKC
     FM031400 21004KT P6SM SKC=



000
FTUS43 KMKX 022039 AAA
TAFMSN
TAF AMD
KMSN 022039Z 0221/0318 08008KT P6SM FEW250
     FM030100 VRB03KT P6SM SKC
     FM030900 00000KT 5SM BR SKC
     FM031400 21004KT P6SM SKC=



000
FTUS43 KMKX 022039 AAA
TAFMKE
TAF AMD
KMKE 022039Z 0221/0324 04010KT P6SM SKC
     FM030100 04006KT P6SM SKC
     FM030400 VRB03KT P6SM SKC
     FM031400 13005KT P6SM SKC=



000
FTUS43 KMKX 021731
TAFMSN
TAF
KMSN 021731Z 0218/0318 08008KT P6SM FEW250
     FM030100 VRB03KT P6SM SKC
     FM030900 00000KT 5SM BR SKC
     FM031400 21004KT P6SM SKC=



000
FTUS43 KMKX 021731
TAFMKE
TAF
KMKE 021731Z 0218/0324 04010KT P6SM SKC
     FM030100 04006KT P6SM SKC
     FM030400 VRB03KT P6SM SKC
     FM031400 13005KT P6SM SKC=



000
FTUS43 KMKX 021731
TAFMSN
TAF
KMSN 021731Z 0218/0318 08008KT P6SM FEW250
     FM030100 VRB03KT P6SM SKC
     FM030900 00000KT 5SM BR SKC
     FM031400 21004KT P6SM SKC=



000
FTUS43 KMKX 021731
TAFMKE
TAF
KMKE 021731Z 0218/0324 04010KT P6SM SKC
     FM030100 04006KT P6SM SKC
     FM030400 VRB03KT P6SM SKC
     FM031400 13005KT P6SM SKC=



000
FTUS43 KMKX 021731
TAFMSN
TAF
KMSN 021731Z 0218/0318 08008KT P6SM FEW250
     FM030100 VRB03KT P6SM SKC
     FM030900 00000KT 5SM BR SKC
     FM031400 21004KT P6SM SKC=



000
FTUS43 KMKX 021731
TAFMKE
TAF
KMKE 021731Z 0218/0324 04010KT P6SM SKC
     FM030100 04006KT P6SM SKC
     FM030400 VRB03KT P6SM SKC
     FM031400 13005KT P6SM SKC=



000
FTUS43 KMKX 021408 AAA
TAFMKE
TAF AMD
KMKE 021408Z 0214/0318 03010KT P6SM FEW025
     FM030300 03004KT P6SM FEW250
     FM031400 12004KT P6SM FEW200=



000
FTUS43 KMKX 021408 AAA
TAFMKE
TAF AMD
KMKE 021408Z 0214/0318 03010KT P6SM FEW025
     FM030300 03004KT P6SM FEW250
     FM031400 12004KT P6SM FEW200=



000
FTUS43 KMKX 021408 AAA
TAFMKE
TAF AMD
KMKE 021408Z 0214/0318 03010KT P6SM FEW025
     FM030300 03004KT P6SM FEW250
     FM031400 12004KT P6SM FEW200=



000
FTUS43 KMKX 021407 AAA
TAFMSN
TAF AMD
KMSN 021407Z 0214/0312 06008KT P6SM SKC
     FM030200 00000KT P6SM FEW250
     FM030900 00000KT 5SM BR FEW200=



000
FTUS43 KMKX 021407 AAA
TAFMSN
TAF AMD
KMSN 021407Z 0214/0312 06008KT P6SM SKC
     FM030200 00000KT P6SM FEW250
     FM030900 00000KT 5SM BR FEW200=



000
FTUS43 KMKX 021407 AAA
TAFMSN
TAF AMD
KMSN 021407Z 0214/0312 06008KT P6SM SKC
     FM030200 00000KT P6SM FEW250
     FM030900 00000KT 5SM BR FEW200=



000
FTUS43 KMKX 021130
TAFMSN
TAF
KMSN 021130Z 0212/0312 36003KT P6SM FEW250
      TEMPO 0212/0213 5SM BR
     FM021400 06006KT P6SM FEW250
     FM030200 00000KT P6SM FEW250
     FM030900 00000KT 5SM BR FEW200=



000
FTUS43 KMKX 021130
TAFMKE
TAF
KMKE 021130Z 0212/0318 03009KT P6SM FEW250
     FM030300 03004KT P6SM FEW250
     FM031400 12004KT P6SM FEW200=



000
FTUS43 KMKX 021130
TAFMSN
TAF
KMSN 021130Z 0212/0312 36003KT P6SM FEW250
      TEMPO 0212/0213 5SM BR
     FM021400 06006KT P6SM FEW250
     FM030200 00000KT P6SM FEW250
     FM030900 00000KT 5SM BR FEW200=



000
FTUS43 KMKX 021130
TAFMSN
TAF
KMSN 021130Z 0212/0312 36003KT P6SM FEW250
      TEMPO 0212/0213 5SM BR
     FM021400 06006KT P6SM FEW250
     FM030200 00000KT P6SM FEW250
     FM030900 00000KT 5SM BR FEW200=



000
FTUS43 KMKX 021130
TAFMKE
TAF
KMKE 021130Z 0212/0318 03009KT P6SM FEW250
     FM030300 03004KT P6SM FEW250
     FM031400 12004KT P6SM FEW200=



000
FTUS43 KMKX 021130
TAFMKE
TAF
KMKE 021130Z 0212/0318 03009KT P6SM FEW250
     FM030300 03004KT P6SM FEW250
     FM031400 12004KT P6SM FEW200=



000
FTUS43 KMKX 020857 AAB
TAFMKE
TAF AMD
KMKE 020857Z 0209/0312 02005KT P6SM FEW250
     FM021200 03007KT P6SM FEW250
     FM021800 05011KT P6SM SCT250
     FM030100 04007KT P6SM FEW250
     FM030800 VRB03KT P6SM FEW040=



000
FTUS43 KMKX 020857 AAB
TAFMKE
TAF AMD
KMKE 020857Z 0209/0312 02005KT P6SM FEW250
     FM021200 03007KT P6SM FEW250
     FM021800 05011KT P6SM SCT250
     FM030100 04007KT P6SM FEW250
     FM030800 VRB03KT P6SM FEW040=



000
FTUS43 KMKX 020857 AAB
TAFMKE
TAF AMD
KMKE 020857Z 0209/0312 02005KT P6SM FEW250
     FM021200 03007KT P6SM FEW250
     FM021800 05011KT P6SM SCT250
     FM030100 04007KT P6SM FEW250
     FM030800 VRB03KT P6SM FEW040=



000
FTUS43 KMKX 020857 AAB
TAFMKE
TAF AMD
KMKE 020857Z 0209/0312 02005KT P6SM FEW250
     FM021200 03007KT P6SM FEW250
     FM021800 05011KT P6SM SCT250
     FM030100 04007KT P6SM FEW250
     FM030800 VRB03KT P6SM FEW040=



000
FTUS43 KMKX 020726 AAB
TAFMSN
TAF AMD
KMSN 020726Z 0207/0306 00000KT 3SM BR SKC
      TEMPO 0207/0211 2SM BR
     FM021200 05004KT P6SM FEW250=



000
FTUS43 KMKX 020726 AAB
TAFMSN
TAF AMD
KMSN 020726Z 0207/0306 00000KT 3SM BR SKC
      TEMPO 0207/0211 2SM BR
     FM021200 05004KT P6SM FEW250=



000
FTUS43 KMKX 020633 AAA
TAFMSN
TAF AMD
KMSN 020633Z 0207/0306 00000KT P6SM SKC
      TEMPO 0210/0212 5SM BR
     FM021200 05004KT P6SM FEW250=



000
FTUS43 KMKX 020633 AAA
TAFMSN
TAF AMD
KMSN 020633Z 0207/0306 00000KT P6SM SKC
      TEMPO 0210/0212 5SM BR
     FM021200 05004KT P6SM FEW250=



000
FTUS43 KMKX 020629 AAA
TAFMKE
TAF AMD
KMKE 020629Z 0206/0312 02005KT P6SM FEW250
     FM021200 03007KT P6SM FEW250
     FM021800 05011KT P6SM SCT250
     FM030100 04007KT P6SM FEW250
     FM030800 VRB03KT P6SM FEW040=



000
FTUS43 KMKX 020629 AAA
TAFMKE
TAF AMD
KMKE 020629Z 0206/0312 02005KT P6SM FEW250
     FM021200 03007KT P6SM FEW250
     FM021800 05011KT P6SM SCT250
     FM030100 04007KT P6SM FEW250
     FM030800 VRB03KT P6SM FEW040=



000
FTUS43 KMKX 020520
TAFMSN
TAF
KMSN 020520Z 0206/0306 00000KT P6SM SKC
     FM020800 00000KT 5SM BR SKC
     FM021000 00000KT 3SM BR MIFG FEW250
     FM021300 05004KT P6SM FEW250=



000
FTUS43 KMKX 020520
TAFMKE
TAF
KMKE 020520Z 0206/0312 01004KT P6SM SKC
     FM020900 03005KT 5SM BR SKC
     FM021200 03007KT 6SM BR FEW250
     FM021800 05011KT P6SM SCT250
     FM030100 04007KT P6SM FEW250
     FM030800 VRB03KT P6SM FEW040=



000
FTUS43 KMKX 020520
TAFMSN
TAF
KMSN 020520Z 0206/0306 00000KT P6SM SKC
     FM020800 00000KT 5SM BR SKC
     FM021000 00000KT 3SM BR MIFG FEW250
     FM021300 05004KT P6SM FEW250=



000
FTUS43 KMKX 020520
TAFMKE
TAF
KMKE 020520Z 0206/0312 01004KT P6SM SKC
     FM020900 03005KT 5SM BR SKC
     FM021200 03007KT 6SM BR FEW250
     FM021800 05011KT P6SM SCT250
     FM030100 04007KT P6SM FEW250
     FM030800 VRB03KT P6SM FEW040=



000
FTUS43 KMKX 020300 AAB
TAFMKE
TAF AMD
KMKE 020300Z 0203/0306 02005KT P6SM FEW250
     FM021000 03006KT 5SM BR SKC
     FM021200 04007KT P6SM SCT250
     FM021600 05011KT P6SM FEW250
     FM030100 04007KT P6SM FEW250=



000
FTUS43 KMKX 020300 AAB
TAFMKE
TAF AMD
KMKE 020300Z 0203/0306 02005KT P6SM FEW250
     FM021000 03006KT 5SM BR SKC
     FM021200 04007KT P6SM SCT250
     FM021600 05011KT P6SM FEW250
     FM030100 04007KT P6SM FEW250=



000
FTUS43 KMKX 020023 AAA
TAFMKE
TAF AMD
KMKE 020023Z 0200/0306 07004KT P6SM SCT008 BKN200
     FM020200 03005KT P6SM FEW008 BKN200
     FM021000 03006KT 3SM BR BKN250
     FM021200 04007KT P6SM SCT250
     FM021600 05011KT P6SM FEW250
     FM030100 04007KT P6SM FEW250=



000
FTUS43 KMKX 020023 AAA
TAFMKE
TAF AMD
KMKE 020023Z 0200/0306 07004KT P6SM SCT008 BKN200
     FM020200 03005KT P6SM FEW008 BKN200
     FM021000 03006KT 3SM BR BKN250
     FM021200 04007KT P6SM SCT250
     FM021600 05011KT P6SM FEW250
     FM030100 04007KT P6SM FEW250=



000
FTUS43 KMKX 020023 AAA
TAFMKE
TAF AMD
KMKE 020023Z 0200/0306 07004KT P6SM SCT008 BKN200
     FM020200 03005KT P6SM FEW008 BKN200
     FM021000 03006KT 3SM BR BKN250
     FM021200 04007KT P6SM SCT250
     FM021600 05011KT P6SM FEW250
     FM030100 04007KT P6SM FEW250=



000
FTUS43 KMKX 020023 AAA
TAFMKE
TAF AMD
KMKE 020023Z 0200/0306 07004KT P6SM SCT008 BKN200
     FM020200 03005KT P6SM FEW008 BKN200
     FM021000 03006KT 3SM BR BKN250
     FM021200 04007KT P6SM SCT250
     FM021600 05011KT P6SM FEW250
     FM030100 04007KT P6SM FEW250=



000
FTUS43 KMKX 012320
TAFMKE
TAF
KMKE 012320Z 0200/0306 05008KT P6SM BKN008
     FM020200 03005KT P6SM SCT008 BKN200
     FM021000 03006KT 3SM BR BKN250
     FM021200 04007KT P6SM SCT250
     FM021600 05011KT P6SM FEW250
     FM030100 04007KT P6SM FEW250=



000
FTUS43 KMKX 012320
TAFMSN
TAF
KMSN 012320Z 0200/0224 05006KT P6SM SCT040 OVC200
     FM020300 11004KT P6SM FEW050 BKN250
     FM020400 VRB03KT P6SM FEW250
     FM020900 00000KT 5SM BR SKC
     FM021200 VRB03KT 6SM BR FEW250
     FM021500 06007KT P6SM FEW250=



000
FTUS43 KMKX 012320
TAFMKE
TAF
KMKE 012320Z 0200/0306 05008KT P6SM BKN008
     FM020200 03005KT P6SM SCT008 BKN200
     FM021000 03006KT 3SM BR BKN250
     FM021200 04007KT P6SM SCT250
     FM021600 05011KT P6SM FEW250
     FM030100 04007KT P6SM FEW250=



000
FTUS43 KMKX 012320
TAFMSN
TAF
KMSN 012320Z 0200/0224 05006KT P6SM SCT040 OVC200
     FM020300 11004KT P6SM FEW050 BKN250
     FM020400 VRB03KT P6SM FEW250
     FM020900 00000KT 5SM BR SKC
     FM021200 VRB03KT 6SM BR FEW250
     FM021500 06007KT P6SM FEW250=



000
FTUS43 KMKX 012320
TAFMSN
TAF
KMSN 012320Z 0200/0224 05006KT P6SM SCT040 OVC200
     FM020300 11004KT P6SM FEW050 BKN250
     FM020400 VRB03KT P6SM FEW250
     FM020900 00000KT 5SM BR SKC
     FM021200 VRB03KT 6SM BR FEW250
     FM021500 06007KT P6SM FEW250=



000
FTUS43 KMKX 012320
TAFMSN
TAF
KMSN 012320Z 0200/0224 05006KT P6SM SCT040 OVC200
     FM020300 11004KT P6SM FEW050 BKN250
     FM020400 VRB03KT P6SM FEW250
     FM020900 00000KT 5SM BR SKC
     FM021200 VRB03KT 6SM BR FEW250
     FM021500 06007KT P6SM FEW250=



000
FTUS43 KMKX 012320
TAFMKE
TAF
KMKE 012320Z 0200/0306 05008KT P6SM BKN008
     FM020200 03005KT P6SM SCT008 BKN200
     FM021000 03006KT 3SM BR BKN250
     FM021200 04007KT P6SM SCT250
     FM021600 05011KT P6SM FEW250
     FM030100 04007KT P6SM FEW250=



000
FTUS43 KMKX 012320
TAFMKE
TAF
KMKE 012320Z 0200/0306 05008KT P6SM BKN008
     FM020200 03005KT P6SM SCT008 BKN200
     FM021000 03006KT 3SM BR BKN250
     FM021200 04007KT P6SM SCT250
     FM021600 05011KT P6SM FEW250
     FM030100 04007KT P6SM FEW250=



000
FTUS43 KMKX 012211 AAD
TAFMKE
TAF AMD
KMKE 012211Z 0122/0224 06008KT P6SM BKN007
     FM020100 05008KT P6SM SCT007 BKN250
     FM020200 03006KT P6SM FEW250
     FM021500 05010KT P6SM FEW250=



000
FTUS43 KMKX 012211 AAD
TAFMKE
TAF AMD
KMKE 012211Z 0122/0224 06008KT P6SM BKN007
     FM020100 05008KT P6SM SCT007 BKN250
     FM020200 03006KT P6SM FEW250
     FM021500 05010KT P6SM FEW250=



000
FTUS43 KMKX 012211 AAD
TAFMKE
TAF AMD
KMKE 012211Z 0122/0224 06008KT P6SM BKN007
     FM020100 05008KT P6SM SCT007 BKN250
     FM020200 03006KT P6SM FEW250
     FM021500 05010KT P6SM FEW250=



000
FTUS43 KMKX 012211 AAD
TAFMKE
TAF AMD
KMKE 012211Z 0122/0224 06008KT P6SM BKN007
     FM020100 05008KT P6SM SCT007 BKN250
     FM020200 03006KT P6SM FEW250
     FM021500 05010KT P6SM FEW250=



000
FTUS43 KMKX 012100 AAC
TAFMKE
TAF AMD
KMKE 012100Z 0121/0224 06010KT P6SM BKN010 BKN250
      TEMPO 0121/0124 SCT010 SCT035 BKN250
     FM020000 05008KT P6SM BKN250
     FM020200 03006KT P6SM FEW250
     FM021500 05010KT P6SM FEW250=



000
FTUS43 KMKX 012100 AAC
TAFMKE
TAF AMD
KMKE 012100Z 0121/0224 06010KT P6SM BKN010 BKN250
      TEMPO 0121/0124 SCT010 SCT035 BKN250
     FM020000 05008KT P6SM BKN250
     FM020200 03006KT P6SM FEW250
     FM021500 05010KT P6SM FEW250=



000
FTUS43 KMKX 012040 AAB
TAFMKE
TAF AMD
KMKE 012040Z 0121/0224 06010KT P6SM FEW030 BKN250
     FM020200 03006KT P6SM FEW250
     FM021500 05010KT P6SM FEW250=



000
FTUS43 KMKX 012040 AAB
TAFMKE
TAF AMD
KMKE 012040Z 0121/0224 06010KT P6SM FEW030 BKN250
     FM020200 03006KT P6SM FEW250
     FM021500 05010KT P6SM FEW250=



000
FTUS43 KMKX 012039 AAB
TAFMSN
TAF AMD
KMSN 012039Z 0121/0218 03008KT P6SM FEW050 BKN250
     FM020300 09004KT P6SM SKC
     FM021400 06008KT P6SM SCT250=



000
FTUS43 KMKX 012039 AAB
TAFMSN
TAF AMD
KMSN 012039Z 0121/0218 03008KT P6SM FEW050 BKN250
     FM020300 09004KT P6SM SKC
     FM021400 06008KT P6SM SCT250=



000
FTUS43 KMKX 011956 AAA
TAFMKE
TAF AMD
KMKE 011956Z 0120/0224 06011G15KT P6SM FEW030 BKN250
     FM020200 03006KT P6SM FEW250
     FM021500 05010KT P6SM FEW250=



000
FTUS43 KMKX 011956 AAA
TAFMKE
TAF AMD
KMKE 011956Z 0120/0224 06011G15KT P6SM FEW030 BKN250
     FM020200 03006KT P6SM FEW250
     FM021500 05010KT P6SM FEW250=



000
FTUS43 KMKX 011956 AAA
TAFMKE
TAF AMD
KMKE 011956Z 0120/0224 06011G15KT P6SM FEW030 BKN250
     FM020200 03006KT P6SM FEW250
     FM021500 05010KT P6SM FEW250=



000
FTUS43 KMKX 011954 AAA
TAFMSN
TAF AMD
KMSN 011954Z 0120/0218 01006KT P6SM FEW050 BKN250
     FM020300 09004KT P6SM SKC
     FM021400 06008KT P6SM SCT250=



000
FTUS43 KMKX 011739
TAFMSN
TAF
KMSN 011739Z 0118/0218 01006KT P6SM SCT250
     FM020300 09004KT P6SM SKC
     FM021400 06008KT P6SM SCT250=



000
FTUS43 KMKX 011739
TAFMKE
TAF
KMKE 011739Z 0118/0224 07010G15KT P6SM FEW035 SCT250
     FM012000 05010G15KT P6SM FEW040 SCT250
     FM020200 03006KT P6SM FEW250
     FM021500 05010KT P6SM FEW250=



000
FTUS43 KMKX 011739
TAFMKE
TAF
KMKE 011739Z 0118/0224 07010G15KT P6SM FEW035 SCT250
     FM012000 05010G15KT P6SM FEW040 SCT250
     FM020200 03006KT P6SM FEW250
     FM021500 05010KT P6SM FEW250=



000
FTUS43 KMKX 011616 AAC
TAFMSN
TAF AMD
KMSN 011616Z 0116/0212 03006KT P6SM FEW040 SCT250
     FM020300 09004KT P6SM FEW250=



000
FTUS43 KMKX 011616 AAC
TAFMSN
TAF AMD
KMSN 011616Z 0116/0212 03006KT P6SM FEW040 SCT250
     FM020300 09004KT P6SM FEW250=



000
FTUS43 KMKX 011611 AAD
TAFMKE
TAF AMD
KMKE 011611Z 0116/0218 06009G14KT P6SM FEW030 SCT250
     FM012000 04010G15KT P6SM FEW040 SCT250
     FM020300 02005KT P6SM FEW250
     FM021400 05009KT P6SM FEW250=



000
FTUS43 KMKX 011611 AAD
TAFMKE
TAF AMD
KMKE 011611Z 0116/0218 06009G14KT P6SM FEW030 SCT250
     FM012000 04010G15KT P6SM FEW040 SCT250
     FM020300 02005KT P6SM FEW250
     FM021400 05009KT P6SM FEW250=



000
FTUS43 KMKX 011611 AAD
TAFMKE
TAF AMD
KMKE 011611Z 0116/0218 06009G14KT P6SM FEW030 SCT250
     FM012000 04010G15KT P6SM FEW040 SCT250
     FM020300 02005KT P6SM FEW250
     FM021400 05009KT P6SM FEW250=



000
FTUS43 KMKX 011611 AAD
TAFMKE
TAF AMD
KMKE 011611Z 0116/0218 06009G14KT P6SM FEW030 SCT250
     FM012000 04010G15KT P6SM FEW040 SCT250
     FM020300 02005KT P6SM FEW250
     FM021400 05009KT P6SM FEW250=



000
FTUS43 KMKX 011456 AAC
TAFMKE
TAF AMD
KMKE 011456Z 0115/0218 04010G15KT P6SM FEW030 SCT250
     FM020300 02005KT P6SM FEW250
     FM021400 05009KT P6SM FEW250=



000
FTUS43 KMKX 011456 AAC
TAFMKE
TAF AMD
KMKE 011456Z 0115/0218 04010G15KT P6SM FEW030 SCT250
     FM020300 02005KT P6SM FEW250
     FM021400 05009KT P6SM FEW250=



000
FTUS43 KMKX 011456 AAC
TAFMKE
TAF AMD
KMKE 011456Z 0115/0218 04010G15KT P6SM FEW030 SCT250
     FM020300 02005KT P6SM FEW250
     FM021400 05009KT P6SM FEW250=



000
FTUS43 KMKX 011452 AAB
TAFMKE
TAF AMD
KMKE 011452Z 0115/0218 33007KT P6SM FEW030 SCT250
     FM011600 04010G15KT P6SM FEW030 SCT250
     FM020300 02005KT P6SM FEW250
     FM021400 05009KT P6SM FEW250=



000
FTUS43 KMKX 011452 AAB
TAFMKE
TAF AMD
KMKE 011452Z 0115/0218 33007KT P6SM FEW030 SCT250
     FM011600 04010G15KT P6SM FEW030 SCT250
     FM020300 02005KT P6SM FEW250
     FM021400 05009KT P6SM FEW250=



000
FTUS43 KMKX 011452 AAB
TAFMKE
TAF AMD
KMKE 011452Z 0115/0218 33007KT P6SM FEW030 SCT250
     FM011600 04010G15KT P6SM FEW030 SCT250
     FM020300 02005KT P6SM FEW250
     FM021400 05009KT P6SM FEW250=



000
FTUS43 KMKX 011452 AAB
TAFMKE
TAF AMD
KMKE 011452Z 0115/0218 33007KT P6SM FEW030 SCT250
     FM011600 04010G15KT P6SM FEW030 SCT250
     FM020300 02005KT P6SM FEW250
     FM021400 05009KT P6SM FEW250=



000
FTUS43 KMKX 011447 AAB
TAFMSN
TAF AMD
KMSN 011447Z 0115/0212 03005KT P6SM FEW040 FEW250
     FM011800 03006KT P6SM FEW250
     FM020300 09004KT P6SM FEW250=



000
FTUS43 KMKX 011447 AAB
TAFMSN
TAF AMD
KMSN 011447Z 0115/0212 03005KT P6SM FEW040 FEW250
     FM011800 03006KT P6SM FEW250
     FM020300 09004KT P6SM FEW250=



000
FTUS43 KMKX 011447 AAB
TAFMSN
TAF AMD
KMSN 011447Z 0115/0212 03005KT P6SM FEW040 FEW250
     FM011800 03006KT P6SM FEW250
     FM020300 09004KT P6SM FEW250=



000
FTUS43 KMKX 011447 AAB
TAFMSN
TAF AMD
KMSN 011447Z 0115/0212 03005KT P6SM FEW040 FEW250
     FM011800 03006KT P6SM FEW250
     FM020300 09004KT P6SM FEW250=



000
FTUS43 KMKX 011338 AAA
TAFMKE
TAF AMD
KMKE 011338Z 0114/0218 33007KT P6SM SCT035 SCT250
     FM011700 04009KT P6SM FEW030
     FM020300 02005KT P6SM FEW250
     FM021400 05009KT P6SM FEW250=



000
FTUS43 KMKX 011336 AAA
TAFMSN
TAF AMD
KMSN 011336Z 0114/0212 02005KT P6SM BKN035
     FM011600 03006KT P6SM SCT040
     FM011900 03006KT P6SM FEW250
     FM020300 09004KT P6SM FEW250=



000
FTUS43 KMKX 011336 AAA
TAFMSN
TAF AMD
KMSN 011336Z 0114/0212 02005KT P6SM BKN035
     FM011600 03006KT P6SM SCT040
     FM011900 03006KT P6SM FEW250
     FM020300 09004KT P6SM FEW250=



000
FTUS43 KMKX 011132
TAFMKE
TAF
KMKE 011132Z 0112/0218 33005KT P6SM SCT035
     FM011700 04009KT P6SM FEW030
     FM020300 02005KT P6SM FEW250
     FM021400 05009KT P6SM FEW250=



000
FTUS43 KMKX 011132
TAFMSN
TAF
KMSN 011132Z 0112/0212 02005KT P6SM SCT035
      TEMPO 0112/0113 BKN025
     FM011900 03006KT P6SM FEW250
     FM020300 09004KT P6SM FEW250=



000
FTUS43 KMKX 011132
TAFMKE
TAF
KMKE 011132Z 0112/0218 33005KT P6SM SCT035
     FM011700 04009KT P6SM FEW030
     FM020300 02005KT P6SM FEW250
     FM021400 05009KT P6SM FEW250=



000
FTUS43 KMKX 011132
TAFMKE
TAF
KMKE 011132Z 0112/0218 33005KT P6SM SCT035
     FM011700 04009KT P6SM FEW030
     FM020300 02005KT P6SM FEW250
     FM021400 05009KT P6SM FEW250=



000
FTUS43 KMKX 011132
TAFMSN
TAF
KMSN 011132Z 0112/0212 02005KT P6SM SCT035
      TEMPO 0112/0113 BKN025
     FM011900 03006KT P6SM FEW250
     FM020300 09004KT P6SM FEW250=



000
FTUS43 KMKX 011132
TAFMKE
TAF
KMKE 011132Z 0112/0218 33005KT P6SM SCT035
     FM011700 04009KT P6SM FEW030
     FM020300 02005KT P6SM FEW250
     FM021400 05009KT P6SM FEW250=



000
FTUS43 KMKX 011132
TAFMSN
TAF
KMSN 011132Z 0112/0212 02005KT P6SM SCT035
      TEMPO 0112/0113 BKN025
     FM011900 03006KT P6SM FEW250
     FM020300 09004KT P6SM FEW250=



000
FTUS43 KMKX 011132
TAFMSN
TAF
KMSN 011132Z 0112/0212 02005KT P6SM SCT035
      TEMPO 0112/0113 BKN025
     FM011900 03006KT P6SM FEW250
     FM020300 09004KT P6SM FEW250=



000
FTUS43 KMKX 011033 AAC
TAFMSN
TAF AMD
KMSN 011033Z 0111/0206 01005KT P6SM BKN022
     FM011200 02005KT P6SM SCT030
     FM012100 05006KT P6SM FEW040
     FM020300 VRB03KT P6SM FEW150=



000
FTUS43 KMKX 011033 AAC
TAFMSN
TAF AMD
KMSN 011033Z 0111/0206 01005KT P6SM BKN022
     FM011200 02005KT P6SM SCT030
     FM012100 05006KT P6SM FEW040
     FM020300 VRB03KT P6SM FEW150=



000
FTUS43 KMKX 011033 AAC
TAFMSN
TAF AMD
KMSN 011033Z 0111/0206 01005KT P6SM BKN022
     FM011200 02005KT P6SM SCT030
     FM012100 05006KT P6SM FEW040
     FM020300 VRB03KT P6SM FEW150=



000
FTUS43 KMKX 011033 AAC
TAFMSN
TAF AMD
KMSN 011033Z 0111/0206 01005KT P6SM BKN022
     FM011200 02005KT P6SM SCT030
     FM012100 05006KT P6SM FEW040
     FM020300 VRB03KT P6SM FEW150=



000
FTUS43 KMKX 010917 AAB
TAFMSN
TAF AMD
KMSN 010917Z 0109/0206 03005KT P6SM BKN020
      TEMPO 0109/0111 BKN018
     FM011100 02005KT P6SM SCT035
     FM012100 05006KT P6SM SCT040
     FM020300 VRB03KT P6SM FEW150=



000
FTUS43 KMKX 010917 AAB
TAFMSN
TAF AMD
KMSN 010917Z 0109/0206 03005KT P6SM BKN020
      TEMPO 0109/0111 BKN018
     FM011100 02005KT P6SM SCT035
     FM012100 05006KT P6SM SCT040
     FM020300 VRB03KT P6SM FEW150=



000
FTUS43 KMKX 010908 AAA
TAFMKE
TAF AMD
KMKE 010908Z 0109/0212 31004KT P6SM SCT010 BKN025
      TEMPO 0109/0110 BKN010
     FM011000 34005KT P6SM SCT030
     FM011700 03010KT P6SM SCT030
     FM012100 06009KT P6SM FEW250
     FM020200 02006KT P6SM FEW200=



000
FTUS43 KMKX 010908 AAA
TAFMKE
TAF AMD
KMKE 010908Z 0109/0212 31004KT P6SM SCT010 BKN025
      TEMPO 0109/0110 BKN010
     FM011000 34005KT P6SM SCT030
     FM011700 03010KT P6SM SCT030
     FM012100 06009KT P6SM FEW250
     FM020200 02006KT P6SM FEW200=



000
FTUS43 KMKX 010908 AAA
TAFMKE
TAF AMD
KMKE 010908Z 0109/0212 31004KT P6SM SCT010 BKN025
      TEMPO 0109/0110 BKN010
     FM011000 34005KT P6SM SCT030
     FM011700 03010KT P6SM SCT030
     FM012100 06009KT P6SM FEW250
     FM020200 02006KT P6SM FEW200=



000
FTUS43 KMKX 010908 AAA
TAFMKE
TAF AMD
KMKE 010908Z 0109/0212 31004KT P6SM SCT010 BKN025
      TEMPO 0109/0110 BKN010
     FM011000 34005KT P6SM SCT030
     FM011700 03010KT P6SM SCT030
     FM012100 06009KT P6SM FEW250
     FM020200 02006KT P6SM FEW200=



000
FTUS43 KMKX 010633 AAA
TAFMSN
TAF AMD
KMSN 010633Z 0107/0206 03004KT P6SM BKN020 OVC035
      TEMPO 0107/0109 BKN019
     FM011400 02005KT P6SM SCT035
     FM012100 05006KT P6SM SCT040
     FM020300 VRB03KT P6SM FEW150=



000
FTUS43 KMKX 010633 AAA
TAFMSN
TAF AMD
KMSN 010633Z 0107/0206 03004KT P6SM BKN020 OVC035
      TEMPO 0107/0109 BKN019
     FM011400 02005KT P6SM SCT035
     FM012100 05006KT P6SM SCT040
     FM020300 VRB03KT P6SM FEW150=



000
FTUS43 KMKX 010633 AAA
TAFMSN
TAF AMD
KMSN 010633Z 0107/0206 03004KT P6SM BKN020 OVC035
      TEMPO 0107/0109 BKN019
     FM011400 02005KT P6SM SCT035
     FM012100 05006KT P6SM SCT040
     FM020300 VRB03KT P6SM FEW150=



000
FTUS43 KMKX 010633 AAA
TAFMSN
TAF AMD
KMSN 010633Z 0107/0206 03004KT P6SM BKN020 OVC035
      TEMPO 0107/0109 BKN019
     FM011400 02005KT P6SM SCT035
     FM012100 05006KT P6SM SCT040
     FM020300 VRB03KT P6SM FEW150=



000
FTUS43 KMKX 010520
TAFMSN
TAF
KMSN 010520Z 0106/0206 00000KT P6SM SCT025
     FM011300 02005KT P6SM SCT035
     FM012100 05006KT P6SM SCT040
     FM020300 VRB03KT P6SM FEW150=



000
FTUS43 KMKX 010520
TAFMSN
TAF
KMSN 010520Z 0106/0206 00000KT P6SM SCT025
     FM011300 02005KT P6SM SCT035
     FM012100 05006KT P6SM SCT040
     FM020300 VRB03KT P6SM FEW150=



000
FTUS43 KMKX 010520
TAFMSN
TAF
KMSN 010520Z 0106/0206 00000KT P6SM SCT025
     FM011300 02005KT P6SM SCT035
     FM012100 05006KT P6SM SCT040
     FM020300 VRB03KT P6SM FEW150=



000
FTUS43 KMKX 010520
TAFMKE
TAF
KMKE 010520Z 0106/0212 02004KT P6SM BKN025
     FM011400 36006KT P6SM SCT030
     FM012100 06010KT P6SM SCT250
     FM020200 02006KT P6SM FEW200=



000
FTUS43 KMKX 010520
TAFMKE
TAF
KMKE 010520Z 0106/0212 02004KT P6SM BKN025
     FM011400 36006KT P6SM SCT030
     FM012100 06010KT P6SM SCT250
     FM020200 02006KT P6SM FEW200=



000
FTUS43 KMKX 010520
TAFMKE
TAF
KMKE 010520Z 0106/0212 02004KT P6SM BKN025
     FM011400 36006KT P6SM SCT030
     FM012100 06010KT P6SM SCT250
     FM020200 02006KT P6SM FEW200=



000
FTUS43 KMKX 010520
TAFMSN
TAF
KMSN 010520Z 0106/0206 00000KT P6SM SCT025
     FM011300 02005KT P6SM SCT035
     FM012100 05006KT P6SM SCT040
     FM020300 VRB03KT P6SM FEW150=



000
FTUS43 KMKX 010520
TAFMKE
TAF
KMKE 010520Z 0106/0212 02004KT P6SM BKN025
     FM011400 36006KT P6SM SCT030
     FM012100 06010KT P6SM SCT250
     FM020200 02006KT P6SM FEW200=



000
FTUS43 KMKX 010401 AAC
TAFMKE
TAF AMD
KMKE 010401Z 0104/0206 03006KT P6SM FEW015 BKN027
     FM011000 03006KT 6SM BR SCT050
     FM011400 36006KT P6SM FEW030
     FM012000 06010KT P6SM SCT200
     FM020200 02006KT P6SM FEW250=



000
FTUS43 KMKX 010401 AAC
TAFMKE
TAF AMD
KMKE 010401Z 0104/0206 03006KT P6SM FEW015 BKN027
     FM011000 03006KT 6SM BR SCT050
     FM011400 36006KT P6SM FEW030
     FM012000 06010KT P6SM SCT200
     FM020200 02006KT P6SM FEW250=



000
FTUS43 KMKX 010325 AAB
TAFMKE
TAF AMD
KMKE 010325Z 0103/0206 03006KT P6SM FEW008 SCT050
     FM010700 03006KT 6SM BR SCT050
     FM011400 36006KT P6SM SCT150
     FM012000 06010KT P6SM SCT200
     FM020200 02006KT P6SM FEW250=



000
FTUS43 KMKX 010325 AAB
TAFMKE
TAF AMD
KMKE 010325Z 0103/0206 03006KT P6SM FEW008 SCT050
     FM010700 03006KT 6SM BR SCT050
     FM011400 36006KT P6SM SCT150
     FM012000 06010KT P6SM SCT200
     FM020200 02006KT P6SM FEW250=



000
FTUS43 KMKX 010325 AAB
TAFMKE
TAF AMD
KMKE 010325Z 0103/0206 03006KT P6SM FEW008 SCT050
     FM010700 03006KT 6SM BR SCT050
     FM011400 36006KT P6SM SCT150
     FM012000 06010KT P6SM SCT200
     FM020200 02006KT P6SM FEW250=



000
FTUS43 KMKX 010325 AAB
TAFMKE
TAF AMD
KMKE 010325Z 0103/0206 03006KT P6SM FEW008 SCT050
     FM010700 03006KT 6SM BR SCT050
     FM011400 36006KT P6SM SCT150
     FM012000 06010KT P6SM SCT200
     FM020200 02006KT P6SM FEW250=



000
FTUS43 KMKX 010101 AAA
TAFMKE
TAF AMD
KMKE 010101Z 0101/0206 02005KT P6SM BKN050
     FM010400 03006KT 6SM BR SCT050
     FM011400 36006KT P6SM SCT150
     FM012000 06010KT P6SM SCT200
     FM020200 02006KT P6SM FEW250=



000
FTUS43 KMKX 010101 AAA
TAFMKE
TAF AMD
KMKE 010101Z 0101/0206 02005KT P6SM BKN050
     FM010400 03006KT 6SM BR SCT050
     FM011400 36006KT P6SM SCT150
     FM012000 06010KT P6SM SCT200
     FM020200 02006KT P6SM FEW250=



000
FTUS43 KMKX 302320
TAFMSN
TAF
KMSN 302320Z 0100/0124 35007KT P6SM SCT060 BKN200
     FM010400 VRB03KT P6SM SCT200
     FM011000 00000KT 5SM BR SCT200
     FM011200 VRB03KT P6SM SCT200
     FM011500 03004KT P6SM SCT025
     FM011700 03005KT P6SM SCT040=



000
FTUS43 KMKX 302320
TAFMSN
TAF
KMSN 302320Z 0100/0124 35007KT P6SM SCT060 BKN200
     FM010400 VRB03KT P6SM SCT200
     FM011000 00000KT 5SM BR SCT200
     FM011200 VRB03KT P6SM SCT200
     FM011500 03004KT P6SM SCT025
     FM011700 03005KT P6SM SCT040=



000
FTUS43 KMKX 302320
TAFMKE
TAF
KMKE 302320Z 0100/0206 04008KT P6SM SCT010
     FM010200 03006KT 6SM BR SCT040
     FM011400 36006KT P6SM SCT150
     FM012000 06010KT P6SM SCT200
     FM020200 02006KT P6SM FEW250=



000
FTUS43 KMKX 302320
TAFMKE
TAF
KMKE 302320Z 0100/0206 04008KT P6SM SCT010
     FM010200 03006KT 6SM BR SCT040
     FM011400 36006KT P6SM SCT150
     FM012000 06010KT P6SM SCT200
     FM020200 02006KT P6SM FEW250=



000
FTUS43 KMKX 302244 AAD
TAFMKE
TAF AMD
KMKE 302244Z 3023/0124 04010G15KT P6SM SCT010
     FM010100 02005KT P6SM SCT150
     FM011800 04007KT P6SM SCT050=



000
FTUS43 KMKX 302244 AAD
TAFMKE
TAF AMD
KMKE 302244Z 3023/0124 04010G15KT P6SM SCT010
     FM010100 02005KT P6SM SCT150
     FM011800 04007KT P6SM SCT050=



000
FTUS43 KMKX 302100 AAB
TAFMSN
TAF AMD
KMSN 302100Z 3021/0118 35008KT P6SM BKN060
     FM010200 01004KT P6SM SCT250=



000
FTUS43 KMKX 302100 AAB
TAFMSN
TAF AMD
KMSN 302100Z 3021/0118 35008KT P6SM BKN060
     FM010200 01004KT P6SM SCT250=



000
FTUS43 KMKX 302059 AAC
TAFMKE
TAF AMD
KMKE 302059Z 3021/0124 04010G15KT P6SM BKN008 BKN015
      TEMPO 3021/3023 SCT008 SCT015 BKN050
     FM302300 04010G15KT P6SM BKN050
     FM010100 02005KT P6SM SCT150
     FM011800 04007KT P6SM SCT050=



000
FTUS43 KMKX 302059 AAC
TAFMKE
TAF AMD
KMKE 302059Z 3021/0124 04010G15KT P6SM BKN008 BKN015
      TEMPO 3021/3023 SCT008 SCT015 BKN050
     FM302300 04010G15KT P6SM BKN050
     FM010100 02005KT P6SM SCT150
     FM011800 04007KT P6SM SCT050=



000
FTUS43 KMKX 302003 AAA
TAFMSN
TAF AMD
KMSN 302003Z 3020/0118 35009KT P6SM BKN050
     FM302200 35008KT P6SM SCT050
     FM010200 01004KT P6SM SCT250=



000
FTUS43 KMKX 302003 AAA
TAFMSN
TAF AMD
KMSN 302003Z 3020/0118 35009KT P6SM BKN050
     FM302200 35008KT P6SM SCT050
     FM010200 01004KT P6SM SCT250=



000
FTUS43 KMKX 302003 AAA
TAFMSN
TAF AMD
KMSN 302003Z 3020/0118 35009KT P6SM BKN050
     FM302200 35008KT P6SM SCT050
     FM010200 01004KT P6SM SCT250=



000
FTUS43 KMKX 302003 AAA
TAFMSN
TAF AMD
KMSN 302003Z 3020/0118 35009KT P6SM BKN050
     FM302200 35008KT P6SM SCT050
     FM010200 01004KT P6SM SCT250=



000
FTUS43 KMKX 301943 AAB
TAFMKE
TAF AMD
KMKE 301943Z 3020/0124 04013G19KT P6SM SCT035 BKN050
     FM010100 02005KT P6SM SCT150
     FM011800 04007KT P6SM SCT050=



000
FTUS43 KMKX 301943 AAB
TAFMKE
TAF AMD
KMKE 301943Z 3020/0124 04013G19KT P6SM SCT035 BKN050
     FM010100 02005KT P6SM SCT150
     FM011800 04007KT P6SM SCT050=



000
FTUS43 KMKX 301801 AAA
TAFMKE
TAF AMD
KMKE 301801Z 3018/0124 04011G15KT P6SM BKN035
     FM010300 02005KT P6SM SCT150
     FM011800 04007KT P6SM SCT050=



000
FTUS43 KMKX 301801 AAA
TAFMKE
TAF AMD
KMKE 301801Z 3018/0124 04011G15KT P6SM BKN035
     FM010300 02005KT P6SM SCT150
     FM011800 04007KT P6SM SCT050=



000
FTUS43 KMKX 301801 AAA
TAFMKE
TAF AMD
KMKE 301801Z 3018/0124 04011G15KT P6SM BKN035
     FM010300 02005KT P6SM SCT150
     FM011800 04007KT P6SM SCT050=



000
FTUS43 KMKX 301801 AAA
TAFMKE
TAF AMD
KMKE 301801Z 3018/0124 04011G15KT P6SM BKN035
     FM010300 02005KT P6SM SCT150
     FM011800 04007KT P6SM SCT050=



000
FTUS43 KMKX 301740
TAFMSN
TAF
KMSN 301740Z 3018/0118 35009KT P6SM BKN035
     FM302200 35008KT P6SM SCT035
     FM010200 01004KT P6SM SCT250=



000
FTUS43 KMKX 301740
TAFMKE
TAF
KMKE 301740Z 3018/0124 34011G18KT P6SM BKN035
     FM301900 03010G15KT P6SM BKN035
     FM010300 02005KT P6SM SCT150
     FM011800 04007KT P6SM SCT050=



000
FTUS43 KMKX 301740
TAFMSN
TAF
KMSN 301740Z 3018/0118 35009KT P6SM BKN035
     FM302200 35008KT P6SM SCT035
     FM010200 01004KT P6SM SCT250=



000
FTUS43 KMKX 301740
TAFMKE
TAF
KMKE 301740Z 3018/0124 34011G18KT P6SM BKN035
     FM301900 03010G15KT P6SM BKN035
     FM010300 02005KT P6SM SCT150
     FM011800 04007KT P6SM SCT050=



000
FTUS43 KMKX 301701 AAD
TAFMKE
TAF AMD
KMKE 301701Z 3017/0118 34011G18KT P6SM BKN030
     FM301900 36011G17KT P6SM BKN035
     FM302100 02011G15KT P6SM SCT040
     FM010100 04007KT P6SM SCT250
     FM011700 04007KT P6SM SCT250=



000
FTUS43 KMKX 301701 AAD
TAFMKE
TAF AMD
KMKE 301701Z 3017/0118 34011G18KT P6SM BKN030
     FM301900 36011G17KT P6SM BKN035
     FM302100 02011G15KT P6SM SCT040
     FM010100 04007KT P6SM SCT250
     FM011700 04007KT P6SM SCT250=



000
FTUS43 KMKX 301701 AAD
TAFMKE
TAF AMD
KMKE 301701Z 3017/0118 34011G18KT P6SM BKN030
     FM301900 36011G17KT P6SM BKN035
     FM302100 02011G15KT P6SM SCT040
     FM010100 04007KT P6SM SCT250
     FM011700 04007KT P6SM SCT250=



000
FTUS43 KMKX 301701 AAD
TAFMKE
TAF AMD
KMKE 301701Z 3017/0118 34011G18KT P6SM BKN030
     FM301900 36011G17KT P6SM BKN035
     FM302100 02011G15KT P6SM SCT040
     FM010100 04007KT P6SM SCT250
     FM011700 04007KT P6SM SCT250=



000
FTUS43 KMKX 301658 AAF
TAFMSN
TAF AMD
KMSN 301658Z 3017/0112 34009KT P6SM BKN025
     FM301900 34009KT P6SM BKN035
     FM010100 36005KT P6SM SCT250=



000
FTUS43 KMKX 301658 AAF
TAFMSN
TAF AMD
KMSN 301658Z 3017/0112 34009KT P6SM BKN025
     FM301900 34009KT P6SM BKN035
     FM010100 36005KT P6SM SCT250=



000
FTUS43 KMKX 301627 AAE
TAFMSN
TAF AMD
KMSN 301627Z 3016/0112 34008KT P6SM BKN015 OVC025
     FM301900 34009KT P6SM BKN035
     FM010100 36005KT P6SM SCT250=



000
FTUS43 KMKX 301627 AAE
TAFMSN
TAF AMD
KMSN 301627Z 3016/0112 34008KT P6SM BKN015 OVC025
     FM301900 34009KT P6SM BKN035
     FM010100 36005KT P6SM SCT250=



000
FTUS43 KMKX 301623 AAC
TAFMKE
TAF AMD
KMKE 301623Z 3016/0118 34011G17KT P6SM SCT025 BKN035
     FM301900 36011G15KT P6SM SCT025 BKN035
     FM302100 02011G15KT P6SM SCT040
     FM010100 04007KT P6SM SCT250
     FM011700 04007KT P6SM SCT250=



000
FTUS43 KMKX 301523 AAB
TAFMKE
TAF AMD
KMKE 301523Z 3015/0118 32008KT P6SM BKN015
     FM301700 34009KT P6SM BKN025
     FM301900 36010G15KT P6SM BKN035
     FM302100 02011G15KT P6SM SCT040
     FM010100 04007KT P6SM SCT250
     FM011700 04007KT P6SM SCT250=



000
FTUS43 KMKX 301523 AAB
TAFMKE
TAF AMD
KMKE 301523Z 3015/0118 32008KT P6SM BKN015
     FM301700 34009KT P6SM BKN025
     FM301900 36010G15KT P6SM BKN035
     FM302100 02011G15KT P6SM SCT040
     FM010100 04007KT P6SM SCT250
     FM011700 04007KT P6SM SCT250=



000
FTUS43 KMKX 301519 AAD
TAFMSN
TAF AMD
KMSN 301519Z 3015/0112 35009KT P6SM OVC010
     FM301700 34008KT P6SM BKN025
     FM301900 34009KT P6SM SCT035
     FM010100 36005KT P6SM SCT250=



000
FTUS43 KMKX 301519 AAD
TAFMSN
TAF AMD
KMSN 301519Z 3015/0112 35009KT P6SM OVC010
     FM301700 34008KT P6SM BKN025
     FM301900 34009KT P6SM SCT035
     FM010100 36005KT P6SM SCT250=



000
FTUS43 KMKX 301405 AAC
TAFMSN
TAF AMD
KMSN 301405Z 3014/0112 33008KT 4SM BR OVC006
     FM301600 34008KT P6SM BKN025
     FM301800 34009KT P6SM SCT035
     FM010100 36005KT P6SM SCT250=



000
FTUS43 KMKX 301405 AAC
TAFMSN
TAF AMD
KMSN 301405Z 3014/0112 33008KT 4SM BR OVC006
     FM301600 34008KT P6SM BKN025
     FM301800 34009KT P6SM SCT035
     FM010100 36005KT P6SM SCT250=



000
FTUS43 KMKX 301405 AAB
TAFMSN
TAF AMD
KMSN 301405Z 3014/0112 33008KT 4SM BR OVC005
     FM301600 34008KT P6SM BKN025
     FM301800 34009KT P6SM SCT035
     FM010100 36005KT P6SM SCT250=



000
FTUS43 KMKX 301405 AAB
TAFMSN
TAF AMD
KMSN 301405Z 3014/0112 33008KT 4SM BR OVC005
     FM301600 34008KT P6SM BKN025
     FM301800 34009KT P6SM SCT035
     FM010100 36005KT P6SM SCT250=



000
FTUS43 KMKX 301402 AAA
TAFMKE
TAF AMD
KMKE 301402Z 3014/0118 33008KT 6SM HZ OVC010
     FM301600 34009KT P6SM BKN025
     FM301800 36010G17KT P6SM BKN035
     FM302000 02010KT P6SM SCT040
     FM010100 04007KT P6SM SCT250
     FM011700 04007KT P6SM SCT250=



000
FTUS43 KMKX 301259 AAA
TAFMSN
TAF AMD
KMSN 301259Z 3013/0112 32004KT 5SM BR BKN007
      TEMPO 3013/3014 OVC005
     FM301500 34006KT P6SM BKN015
     FM301600 34008KT P6SM BKN025
     FM301800 34009KT P6SM SCT035
     FM010100 36005KT P6SM SCT250=



000
FTUS43 KMKX 301259 AAA
TAFMSN
TAF AMD
KMSN 301259Z 3013/0112 32004KT 5SM BR BKN007
      TEMPO 3013/3014 OVC005
     FM301500 34006KT P6SM BKN015
     FM301600 34008KT P6SM BKN025
     FM301800 34009KT P6SM SCT035
     FM010100 36005KT P6SM SCT250=



000
FTUS43 KMKX 301259 AAA
TAFMSN
TAF AMD
KMSN 301259Z 3013/0112 32004KT 5SM BR BKN007
      TEMPO 3013/3014 OVC005
     FM301500 34006KT P6SM BKN015
     FM301600 34008KT P6SM BKN025
     FM301800 34009KT P6SM SCT035
     FM010100 36005KT P6SM SCT250=



000
FTUS43 KMKX 301259 AAA
TAFMSN
TAF AMD
KMSN 301259Z 3013/0112 32004KT 5SM BR BKN007
      TEMPO 3013/3014 OVC005
     FM301500 34006KT P6SM BKN015
     FM301600 34008KT P6SM BKN025
     FM301800 34009KT P6SM SCT035
     FM010100 36005KT P6SM SCT250=



000
FTUS43 KMKX 301130
TAFMSN
TAF
KMSN 301130Z 3012/0112 32004KT 4SM BR SCT003
      TEMPO 3012/3014 BKN003
     FM301400 34006KT P6SM BKN015
     FM301600 34008KT P6SM BKN025
     FM301800 34009KT P6SM SCT035
     FM010100 36005KT P6SM SCT250=



000
FTUS43 KMKX 301130
TAFMKE
TAF
KMKE 301130Z 3012/0118 31006KT P6SM SCT006
      TEMPO 3012/3014 6SM BR BKN006
     FM301400 33008KT P6SM BKN015
     FM301600 34009KT P6SM BKN025
     FM301800 36010G17KT P6SM BKN035
     FM302000 02010KT P6SM SCT040
     FM010100 04007KT P6SM SCT250
     FM010900 34005KT P6SM SCT250
     FM011700 04007KT P6SM SCT250=



000
FTUS43 KMKX 301013 AAB
TAFMKE
TAF AMD
KMKE 301013Z 3010/0112 30005KT P6SM SKC
     FM301500 34008KT P6SM BKN025
     FM301800 36011KT P6SM BKN035
     FM302000 03009KT P6SM FEW035=



000
FTUS43 KMKX 301013 AAB
TAFMKE
TAF AMD
KMKE 301013Z 3010/0112 30005KT P6SM SKC
     FM301500 34008KT P6SM BKN025
     FM301800 36011KT P6SM BKN035
     FM302000 03009KT P6SM FEW035=



000
FTUS43 KMKX 300748 AAA
TAFMKE
TAF AMD
KMKE 300748Z 3008/0112 VRB03KT 5SM BR SCT004 BKN100
     FM301200 31005KT 6SM BR SCT010
     FM301500 34008KT P6SM BKN025
     FM301800 36011KT P6SM BKN035
     FM302000 03009KT P6SM FEW035
     FM010000 02008KT P6SM SCT025=



000
FTUS43 KMKX 300748 AAA
TAFMKE
TAF AMD
KMKE 300748Z 3008/0112 VRB03KT 5SM BR SCT004 BKN100
     FM301200 31005KT 6SM BR SCT010
     FM301500 34008KT P6SM BKN025
     FM301800 36011KT P6SM BKN035
     FM302000 03009KT P6SM FEW035
     FM010000 02008KT P6SM SCT025=



    US Dept of Commerce
    National Oceanic and Atmospheric Administration
    National Weather Service
    1325 East West Highway
    Silver Spring, MD 20910
    Page Author: NWS Internet Services Team
Disclaimer
Information Quality
Credits
Glossary
Privacy Policy
Freedom of Information Act (FOIA)
About Us
Career Opportunities